createdAt,value
2023-12-10T00:01:07.844Z,49.71
2023-12-10T00:03:53.187Z,49.77
2023-12-10T00:06:21.833Z,49.85
2023-12-10T00:08:50.468Z,49.86
2023-12-10T00:11:18.942Z,49.99
2023-12-10T00:13:47.767Z,49.97
2023-12-10T00:16:16.327Z,50.08
2023-12-10T00:18:46.039Z,50.03
2023-12-10T00:21:15.383Z,50.05
2023-12-10T00:23:44.579Z,50.07
2023-12-10T00:26:13.033Z,50.14
2023-12-10T00:28:41.465Z,50.14
2023-12-10T00:31:10.305Z,50.15
2023-12-10T00:33:39.093Z,50.17
2023-12-10T00:36:08.367Z,50.22
2023-12-10T00:38:36.739Z,50.22
2023-12-10T00:41:06.201Z,50.20
2023-12-10T00:43:34.443Z,50.26
2023-12-10T00:46:02.774Z,50.34
2023-12-10T00:48:31.526Z,50.37
2023-12-10T00:51:00.221Z,50.42
2023-12-10T00:53:29.015Z,50.42
2023-12-10T00:55:57.477Z,50.44
2023-12-10T00:58:26.076Z,50.41
2023-12-10T01:03:36.006Z,50.51
2023-12-10T01:06:05.220Z,50.54
2023-12-10T01:08:33.866Z,50.62
2023-12-10T01:11:02.404Z,50.62
2023-12-10T01:13:30.679Z,50.69
2023-12-10T01:15:59.086Z,50.69
2023-12-10T01:18:27.530Z,50.77
2023-12-10T01:20:55.888Z,50.74
2023-12-10T01:23:24.149Z,50.76
2023-12-10T01:25:52.833Z,50.85
2023-12-10T01:28:21.414Z,50.91
2023-12-10T01:30:50.281Z,50.91
2023-12-10T01:33:18.948Z,50.97
2023-12-10T01:35:47.409Z,51.01
2023-12-10T01:38:15.859Z,51.06
2023-12-10T01:40:44.518Z,51.07
2023-12-10T01:43:13.238Z,51.06
2023-12-10T01:45:42.397Z,51.13
2023-12-10T01:48:11.296Z,51.15
2023-12-10T01:50:40.189Z,51.23
2023-12-10T01:53:08.691Z,51.22
2023-12-10T01:55:37.675Z,51.30
2023-12-10T01:58:06.116Z,51.33
2023-12-10T02:00:35.198Z,51.31
2023-12-10T02:03:04.609Z,51.30
2023-12-10T02:05:33.288Z,51.42
2023-12-10T02:08:01.718Z,51.31
2023-12-10T02:10:30.034Z,51.43
2023-12-10T02:12:58.692Z,51.52
2023-12-10T02:15:28.275Z,51.49
2023-12-10T02:17:57.522Z,51.52
2023-12-10T02:20:27.152Z,51.51
2023-12-10T02:23:21.964Z,51.54
2023-12-10T02:25:51.179Z,51.58
2023-12-10T02:28:19.556Z,51.50
2023-12-10T02:30:48.175Z,51.57
2023-12-10T02:33:16.708Z,51.52
2023-12-10T02:35:45.230Z,51.59
2023-12-10T02:38:13.588Z,51.63
2023-12-10T02:40:42.163Z,51.69
2023-12-10T02:43:10.605Z,51.69
2023-12-10T02:45:39.320Z,51.73
2023-12-10T02:48:07.784Z,51.72
2023-12-10T02:50:36.210Z,51.84
2023-12-10T02:53:04.643Z,51.88
2023-12-10T02:55:33.307Z,52.00
2023-12-10T02:58:03.559Z,52.18
2023-12-10T03:00:33.961Z,52.07
2023-12-10T03:03:04.043Z,52.04
2023-12-10T03:05:33.696Z,52.06
2023-12-10T03:08:02.121Z,52.12
2023-12-10T03:10:30.525Z,52.06
2023-12-10T03:12:59.096Z,52.01
2023-12-10T03:15:27.636Z,52.01
2023-12-10T03:17:56.129Z,52.04
2023-12-10T03:20:24.652Z,52.14
2023-12-10T03:22:52.869Z,52.08
2023-12-10T03:25:23.265Z,52.10
2023-12-10T03:27:53.852Z,52.01
2023-12-10T03:30:22.580Z,52.09
2023-12-10T03:32:51.299Z,52.07
2023-12-10T03:35:19.694Z,52.21
2023-12-10T03:37:48.111Z,52.08
2023-12-10T03:40:16.762Z,52.05
2023-12-10T03:42:45.857Z,52.03
2023-12-10T03:45:14.253Z,52.07
2023-12-10T03:47:42.456Z,52.10
2023-12-10T03:50:11.124Z,52.09
2023-12-10T03:52:39.478Z,52.06
2023-12-10T03:55:09.871Z,52.03
2023-12-10T03:57:38.819Z,52.07
2023-12-10T04:00:08.259Z,52.05
2023-12-10T04:02:37.269Z,52.08
2023-12-10T04:05:06.312Z,52.06
2023-12-10T04:07:34.904Z,52.00
2023-12-10T04:10:03.683Z,52.17
2023-12-10T04:12:33.118Z,52.14
2023-12-10T04:15:01.417Z,52.11
2023-12-10T04:17:30.609Z,52.07
2023-12-10T04:19:59.005Z,52.15
2023-12-10T04:22:28.691Z,52.10
2023-12-10T04:24:57.947Z,52.07
2023-12-10T04:27:26.499Z,52.07
2023-12-10T04:29:54.872Z,52.11
2023-12-10T04:32:23.250Z,52.13
2023-12-10T04:34:52.433Z,52.17
2023-12-10T04:37:20.836Z,52.21
2023-12-10T04:39:49.096Z,52.25
2023-12-10T04:42:17.678Z,52.27
2023-12-10T04:44:46.953Z,52.31
2023-12-10T04:47:15.264Z,52.32
2023-12-10T04:49:44.131Z,52.39
2023-12-10T04:52:12.787Z,52.29
2023-12-10T04:54:41.175Z,52.35
2023-12-10T04:57:09.689Z,52.45
2023-12-10T04:59:37.904Z,52.39
2023-12-10T05:02:06.324Z,52.40
2023-12-10T05:04:34.843Z,52.48
2023-12-10T05:07:03.334Z,52.53
2023-12-10T05:09:31.676Z,52.50
2023-12-10T05:12:00.279Z,52.50
2023-12-10T05:14:28.738Z,52.52
2023-12-10T05:16:57.146Z,52.59
2023-12-10T05:19:26.672Z,52.53
2023-12-10T05:21:55.208Z,52.56
2023-12-10T05:24:23.689Z,52.51
2023-12-10T05:26:52.135Z,52.64
2023-12-10T05:29:20.998Z,52.76
2023-12-10T05:31:49.211Z,52.78
2023-12-10T05:34:17.940Z,52.76
2023-12-10T05:36:46.647Z,52.91
2023-12-10T05:39:14.965Z,52.77
2023-12-10T05:41:43.830Z,52.85
2023-12-10T05:44:12.263Z,52.86
2023-12-10T05:46:40.572Z,52.89
2023-12-10T05:49:09.014Z,52.89
2023-12-10T05:51:37.622Z,52.95
2023-12-10T05:54:06.012Z,53.04
2023-12-10T05:56:34.804Z,53.01
2023-12-10T05:59:03.036Z,53.04
2023-12-10T06:01:32.009Z,53.03
2023-12-10T06:04:00.643Z,53.10
2023-12-10T06:06:29.120Z,52.95
2023-12-10T06:08:57.390Z,53.05
2023-12-10T06:11:25.995Z,53.17
2023-12-10T06:13:54.460Z,53.14
2023-12-10T06:16:22.790Z,53.13
2023-12-10T06:18:51.292Z,53.16
2023-12-10T06:21:19.804Z,53.19
2023-12-10T06:23:48.088Z,53.23
2023-12-10T06:26:16.850Z,53.31
2023-12-10T06:28:45.246Z,53.36
2023-12-10T06:31:14.303Z,53.36
2023-12-10T06:33:46.702Z,53.39
2023-12-10T06:36:15.170Z,53.43
2023-12-10T06:38:43.610Z,53.61
2023-12-10T06:41:12.090Z,53.56
2023-12-10T06:43:40.444Z,53.67
2023-12-10T06:46:08.743Z,53.80
2023-12-10T06:48:37.334Z,53.79
2023-12-10T06:51:06.251Z,53.91
2023-12-10T06:53:34.624Z,53.96
2023-12-10T06:56:03.479Z,53.99
2023-12-10T06:58:31.871Z,54.05
2023-12-10T07:01:00.395Z,54.19
2023-12-10T07:03:28.864Z,54.28
2023-12-10T07:05:57.364Z,54.25
2023-12-10T07:08:25.951Z,54.27
2023-12-10T07:10:54.355Z,54.32
2023-12-10T07:13:22.672Z,54.42
2023-12-10T07:15:51.525Z,54.43
2023-12-10T07:18:20.296Z,54.34
2023-12-10T07:20:48.708Z,54.55
2023-12-10T07:23:17.084Z,54.42
2023-12-10T07:25:45.900Z,54.46
2023-12-10T07:28:14.095Z,54.51
2023-12-10T07:30:42.337Z,54.43
2023-12-10T07:33:10.996Z,54.47
2023-12-10T07:35:39.679Z,54.46
2023-12-10T07:38:08.542Z,54.33
2023-12-10T07:40:37.372Z,54.63
2023-12-10T07:43:06.690Z,54.69
2023-12-10T07:45:35.256Z,53.57
2023-12-10T07:48:04.926Z,51.72
2023-12-10T07:50:33.327Z,49.83
2023-12-10T07:53:04.412Z,48.37
2023-12-10T07:55:34.587Z,47.15
2023-12-10T07:58:03.389Z,46.37
2023-12-10T08:00:31.931Z,45.30
2023-12-10T08:03:00.854Z,43.82
2023-12-10T08:05:29.333Z,42.41
2023-12-10T08:07:58.531Z,40.68
2023-12-10T08:10:27.030Z,39.31
2023-12-10T08:12:56.164Z,38.22
2023-12-10T08:15:24.896Z,37.37
2023-12-10T08:17:54.368Z,36.39
2023-12-10T08:20:23.580Z,35.07
2023-12-10T08:22:51.977Z,34.05
2023-12-10T08:25:20.395Z,33.08
2023-12-10T08:27:48.935Z,32.23
2023-12-10T08:30:18.369Z,31.22
2023-12-10T08:32:46.832Z,30.40
2023-12-10T08:35:15.159Z,29.77
2023-12-10T08:37:43.822Z,28.72
2023-12-10T08:40:12.486Z,28.42
2023-12-10T08:42:41.807Z,27.95
2023-12-10T08:45:10.369Z,27.00
2023-12-10T08:47:39.100Z,26.24
2023-12-10T08:50:07.912Z,25.80
2023-12-10T08:52:36.248Z,25.17
2023-12-10T08:55:04.998Z,25.11
2023-12-10T08:57:33.556Z,24.53
2023-12-10T09:00:02.130Z,24.11
2023-12-10T09:02:31.833Z,23.72
2023-12-10T09:05:00.662Z,23.28
2023-12-10T09:07:31.269Z,23.22
2023-12-10T09:10:08.236Z,23.07
2023-12-10T09:12:40.688Z,23.43
2023-12-10T09:15:09.859Z,23.54
2023-12-10T09:17:38.386Z,23.93
2023-12-10T09:20:08.970Z,24.29
2023-12-10T09:22:37.237Z,24.28
2023-12-10T09:25:06.650Z,24.18
2023-12-10T09:27:35.129Z,23.50
2023-12-10T09:30:03.929Z,23.25
2023-12-10T09:32:32.664Z,22.83
2023-12-10T09:35:03.426Z,22.50
2023-12-10T09:37:31.833Z,22.14
2023-12-10T09:40:00.639Z,21.83
2023-12-10T09:42:29.623Z,21.28
2023-12-10T09:44:58.253Z,21.18
2023-12-10T09:47:28.297Z,20.92
2023-12-10T09:49:59.746Z,20.84
2023-12-10T09:52:28.619Z,20.47
2023-12-10T09:54:57.437Z,20.42
2023-12-10T09:57:26.254Z,20.31
2023-12-10T09:59:55.276Z,20.24
2023-12-10T10:02:34.827Z,20.37
2023-12-10T10:05:05.305Z,20.32
2023-12-10T10:07:33.921Z,19.85
2023-12-10T10:10:02.543Z,20.06
2023-12-10T10:12:32.631Z,19.95
2023-12-10T10:15:02.268Z,19.56
2023-12-10T10:17:33.437Z,19.84
2023-12-10T10:20:03.972Z,20.13
2023-12-10T10:22:32.808Z,20.30
2023-12-10T10:25:01.370Z,19.92
2023-12-10T10:27:30.484Z,19.68
2023-12-10T10:30:03.217Z,19.42
2023-12-10T10:32:32.058Z,19.88
2023-12-10T10:35:04.612Z,20.13
2023-12-10T10:37:33.093Z,20.20
2023-12-10T10:40:02.082Z,20.38
2023-12-10T10:42:31.683Z,20.50
2023-12-10T10:45:02.668Z,20.18
2023-12-10T10:47:33.941Z,20.11
2023-12-10T10:50:20.890Z,20.12
2023-12-10T10:52:57.380Z,19.78
2023-12-10T10:55:26.589Z,19.80
2023-12-10T10:57:55.748Z,19.64
2023-12-10T11:00:27.444Z,19.49
2023-12-10T11:02:56.337Z,19.53
2023-12-10T11:05:32.620Z,19.69
2023-12-10T11:08:02.482Z,19.88
2023-12-10T11:10:31.403Z,20.17
2023-12-10T11:13:01.139Z,20.32
2023-12-10T11:15:30.470Z,20.36
2023-12-10T11:18:01.394Z,20.59
2023-12-10T11:20:43.699Z,20.72
2023-12-10T11:23:16.987Z,21.28
2023-12-10T11:25:46.206Z,21.77
2023-12-10T11:28:16.553Z,22.21
2023-12-10T11:30:46.306Z,22.75
2023-12-10T11:33:16.813Z,22.99
2023-12-10T11:36:17.277Z,23.30
2023-12-10T11:38:34.874Z,23.44
2023-12-10T11:41:05.210Z,23.99
2023-12-10T11:43:33.954Z,24.26
2023-12-10T11:46:03.009Z,24.29
2023-12-10T11:48:32.590Z,24.42
2023-12-10T11:51:01.540Z,24.61
2023-12-10T11:53:30.349Z,25.22
2023-12-10T11:55:59.810Z,25.39
2023-12-10T11:58:29.094Z,25.87
2023-12-10T12:01:00.157Z,26.04
2023-12-10T12:03:32.714Z,25.96
2023-12-10T12:06:01.739Z,25.96
2023-12-10T12:08:31.184Z,26.22
2023-12-10T12:11:00.106Z,26.26
2023-12-10T12:13:29.884Z,26.52
2023-12-10T12:15:58.893Z,26.54
2023-12-10T12:18:28.451Z,26.82
2023-12-10T12:20:57.717Z,26.97
2023-12-10T12:23:26.646Z,27.01
2023-12-10T12:25:56.240Z,27.24
2023-12-10T12:28:25.321Z,27.50
2023-12-10T12:30:54.807Z,27.23
2023-12-10T12:33:23.853Z,27.37
2023-12-10T12:35:52.574Z,28.07
2023-12-10T12:38:21.041Z,28.64
2023-12-10T12:40:49.442Z,29.13
2023-12-10T12:43:18.728Z,29.59
2023-12-10T12:45:47.005Z,30.19
2023-12-10T12:48:15.547Z,30.58
2023-12-10T12:50:44.470Z,31.00
2023-12-10T12:53:14.091Z,31.78
2023-12-10T12:55:43.109Z,32.47
2023-12-10T12:58:12.379Z,32.86
2023-12-10T13:00:40.769Z,33.39
2023-12-10T13:03:10.471Z,34.08
2023-12-10T13:05:39.273Z,34.38
2023-12-10T13:08:07.689Z,34.48
2023-12-10T13:10:36.235Z,34.53
2023-12-10T13:13:04.873Z,34.28
2023-12-10T13:15:33.933Z,33.66
2023-12-10T13:18:02.668Z,33.18
2023-12-10T13:20:31.593Z,32.56
2023-12-10T13:23:00.686Z,32.41
2023-12-10T13:25:28.898Z,32.34
2023-12-10T13:27:57.466Z,32.26
2023-12-10T13:30:26.247Z,32.41
2023-12-10T13:32:54.713Z,32.58
2023-12-10T13:35:23.947Z,32.83
2023-12-10T13:37:52.138Z,32.86
2023-12-10T13:40:20.658Z,32.87
2023-12-10T13:42:49.508Z,32.62
2023-12-10T13:45:17.873Z,32.61
2023-12-10T13:47:46.432Z,32.27
2023-12-10T13:50:16.224Z,31.91
2023-12-10T13:52:45.314Z,31.99
2023-12-10T13:55:14.320Z,32.78
2023-12-10T13:57:43.133Z,33.30
2023-12-10T14:00:12.516Z,33.59
2023-12-10T14:02:41.669Z,33.95
2023-12-10T14:05:09.942Z,34.47
2023-12-10T14:07:38.251Z,34.72
2023-12-10T14:10:07.243Z,35.24
2023-12-10T14:12:35.706Z,36.13
2023-12-10T14:15:04.571Z,36.38
2023-12-10T14:17:33.673Z,36.37
2023-12-10T14:20:04.104Z,36.47
2023-12-10T14:22:33.616Z,36.51
2023-12-10T14:25:02.298Z,37.16
2023-12-10T14:27:33.367Z,37.95
2023-12-10T14:30:01.747Z,38.37
2023-12-10T14:32:30.050Z,38.45
2023-12-10T14:34:58.743Z,38.48
2023-12-10T14:37:27.506Z,38.58
2023-12-10T14:39:56.521Z,38.32
2023-12-10T14:42:26.110Z,38.50
2023-12-10T14:44:54.513Z,38.72
2023-12-10T14:47:22.790Z,38.90
2023-12-10T14:49:52.119Z,38.85
2023-12-10T14:52:20.604Z,38.66
2023-12-10T14:54:49.484Z,39.11
2023-12-10T14:57:17.884Z,39.26
2023-12-10T14:59:46.461Z,39.59
2023-12-10T15:02:15.130Z,39.83
2023-12-10T15:04:43.557Z,39.81
2023-12-10T15:07:13.022Z,40.12
2023-12-10T15:09:41.339Z,40.25
2023-12-10T15:12:10.441Z,40.30
2023-12-10T15:14:39.573Z,40.94
2023-12-10T15:17:08.058Z,41.03
2023-12-10T15:19:36.449Z,41.23
2023-12-10T15:22:06.567Z,42.02
2023-12-10T15:24:36.174Z,42.55
2023-12-10T15:27:04.858Z,43.47
2023-12-10T15:29:33.990Z,44.27
2023-12-10T15:32:02.376Z,44.95
2023-12-10T15:34:31.054Z,45.40
2023-12-10T15:36:59.868Z,46.40
2023-12-10T15:39:29.149Z,46.98
2023-12-10T15:41:58.152Z,47.47
2023-12-10T15:44:26.394Z,48.41
2023-12-10T15:46:54.905Z,49.22
2023-12-10T15:49:23.400Z,49.78
2023-12-10T15:51:53.406Z,50.40
2023-12-10T15:54:22.183Z,50.98
2023-12-10T15:56:50.502Z,51.06
2023-12-10T15:59:18.688Z,51.52
2023-12-10T16:01:47.150Z,51.79
2023-12-10T16:04:15.651Z,52.13
2023-12-10T16:06:44.292Z,52.38
2023-12-10T16:09:12.681Z,52.53
2023-12-10T16:11:41.467Z,52.77
2023-12-10T16:14:11.184Z,53.17
2023-12-10T16:16:39.827Z,53.70
2023-12-10T16:19:08.845Z,53.96
2023-12-10T16:21:37.773Z,54.09
2023-12-10T16:24:06.614Z,54.14
2023-12-10T16:26:39.422Z,54.41
2023-12-10T16:29:07.906Z,54.44
2023-12-10T16:31:36.406Z,54.53
2023-12-10T16:34:04.881Z,54.57
2023-12-10T16:36:36.271Z,54.61
2023-12-10T16:39:04.834Z,54.74
2023-12-10T16:41:34.782Z,54.76
2023-12-10T16:44:04.005Z,54.90
2023-12-10T16:46:39.391Z,55.08
2023-12-10T16:49:08.242Z,55.25
2023-12-10T16:51:37.144Z,55.37
2023-12-10T16:54:06.116Z,55.24
2023-12-10T16:56:34.522Z,55.34
2023-12-10T16:59:02.819Z,55.35
2023-12-10T17:01:32.021Z,55.31
2023-12-10T17:04:01.031Z,55.42
2023-12-10T17:06:29.855Z,55.65
2023-12-10T17:08:58.372Z,55.37
2023-12-10T17:11:28.407Z,55.59
2023-12-10T17:13:56.664Z,55.53
2023-12-10T17:16:25.238Z,55.63
2023-12-10T17:18:54.801Z,55.67
2023-12-10T17:21:23.491Z,55.79
2023-12-10T17:23:52.447Z,55.74
2023-12-10T17:26:20.843Z,55.84
2023-12-10T17:28:49.126Z,55.89
2023-12-10T17:31:17.617Z,55.92
2023-12-10T17:33:46.314Z,56.06
2023-12-10T17:36:15.878Z,56.08
2023-12-10T17:38:44.211Z,56.25
2023-12-10T17:41:12.591Z,56.06
2023-12-10T17:43:41.074Z,56.09
2023-12-10T17:46:09.435Z,56.10
2023-12-10T17:48:37.957Z,56.16
2023-12-10T17:51:13.768Z,56.13
2023-12-10T17:53:45.107Z,56.11
2023-12-10T17:56:15.302Z,56.05
2023-12-10T17:58:44.024Z,55.98
2023-12-10T18:01:13.510Z,56.04
2023-12-10T18:03:42.211Z,56.07
2023-12-10T18:06:10.616Z,56.11
2023-12-10T18:08:39.408Z,56.16
2023-12-10T18:11:07.860Z,56.25
2023-12-10T18:13:36.763Z,56.22
2023-12-10T18:16:07.582Z,56.33
2023-12-10T18:18:36.005Z,56.40
2023-12-10T18:21:04.958Z,56.43
2023-12-10T18:23:33.308Z,56.59
2023-12-10T18:26:01.724Z,56.64
2023-12-10T18:28:30.041Z,56.85
2023-12-10T18:31:00.215Z,57.07
2023-12-10T18:33:29.779Z,57.11
2023-12-10T18:35:58.889Z,57.17
2023-12-10T18:38:27.151Z,57.20
2023-12-10T18:40:55.367Z,57.42
2023-12-10T18:43:24.346Z,57.44
2023-12-10T18:45:52.966Z,57.56
2023-12-10T18:48:21.774Z,57.69
2023-12-10T18:50:50.360Z,57.69
2023-12-10T18:53:18.616Z,57.72
2023-12-10T18:55:46.872Z,57.86
2023-12-10T18:58:15.754Z,57.93
2023-12-10T19:00:44.503Z,57.96
2023-12-10T19:03:12.901Z,57.94
2023-12-10T19:05:41.800Z,57.97
2023-12-10T19:08:10.134Z,57.92
2023-12-10T19:10:39.093Z,57.95
2023-12-10T19:13:10.904Z,57.93
2023-12-10T19:15:39.513Z,57.88
2023-12-10T19:18:08.048Z,57.94
2023-12-10T19:20:37.097Z,58.00
2023-12-10T19:23:05.364Z,57.99
2023-12-10T19:25:33.721Z,58.05
2023-12-10T19:28:02.795Z,58.16
2023-12-10T19:30:31.398Z,58.08
2023-12-10T19:32:59.837Z,58.13
2023-12-10T19:35:29.448Z,58.22
2023-12-10T19:37:58.405Z,58.10
2023-12-10T19:40:26.633Z,58.07
2023-12-10T19:42:54.889Z,57.91
2023-12-10T19:45:23.778Z,57.76
2023-12-10T19:47:52.186Z,57.61
2023-12-10T19:50:22.031Z,57.40
2023-12-10T19:52:50.773Z,57.36
2023-12-10T19:55:18.992Z,57.25
2023-12-10T19:57:47.620Z,57.35
2023-12-10T20:00:16.290Z,57.38
2023-12-10T20:02:44.779Z,57.28
2023-12-10T20:05:13.513Z,57.37
2023-12-10T20:07:42.209Z,57.30
2023-12-10T20:10:10.768Z,57.33
2023-12-10T20:12:39.862Z,57.28
2023-12-10T20:15:11.279Z,57.34
2023-12-10T20:17:41.209Z,57.31
2023-12-10T20:20:10.013Z,57.19
2023-12-10T20:22:38.390Z,57.45
2023-12-10T20:25:10.991Z,57.42
2023-12-10T20:27:44.772Z,57.44
2023-12-10T20:30:14.044Z,57.40
2023-12-10T20:32:42.485Z,57.40
2023-12-10T20:35:11.453Z,57.45
2023-12-10T20:37:39.935Z,57.49
2023-12-10T20:40:09.244Z,57.49
2023-12-10T20:42:38.173Z,57.47
2023-12-10T20:45:07.471Z,57.45
2023-12-10T20:47:35.757Z,57.48
2023-12-10T20:50:04.496Z,57.59
2023-12-10T20:52:33.959Z,57.61
2023-12-10T20:55:02.846Z,57.59
2023-12-10T20:57:31.434Z,57.52
2023-12-10T21:00:00.061Z,57.51
2023-12-10T21:02:30.153Z,57.63
2023-12-10T21:04:59.428Z,57.65
2023-12-10T21:07:28.041Z,57.74
2023-12-10T21:09:56.635Z,57.83
2023-12-10T21:12:25.395Z,57.76
2023-12-10T21:14:53.694Z,57.80
2023-12-10T21:17:23.289Z,57.86
2023-12-10T21:19:52.191Z,57.83
2023-12-10T21:22:20.889Z,57.89
2023-12-10T21:24:49.127Z,57.92
2023-12-10T21:27:17.509Z,57.82
2023-12-10T21:29:45.858Z,57.71
2023-12-10T21:32:14.064Z,57.90
2023-12-10T21:34:43.936Z,57.90
2023-12-10T21:37:12.733Z,57.73
2023-12-10T21:39:42.223Z,57.59
2023-12-10T21:42:10.860Z,57.61
2023-12-10T21:44:39.174Z,57.69
2023-12-10T21:47:07.515Z,57.52
2023-12-10T21:49:39.756Z,57.47
2023-12-10T21:52:08.698Z,57.26
2023-12-10T21:54:37.181Z,57.24
2023-12-10T21:57:05.485Z,57.13
2023-12-10T21:59:33.807Z,57.15
2023-12-10T22:02:02.474Z,57.10
2023-12-10T22:04:30.980Z,57.01
2023-12-10T22:06:59.599Z,56.90
2023-12-10T22:09:28.153Z,56.93
2023-12-10T22:11:56.479Z,56.84
2023-12-10T22:14:24.704Z,56.88
2023-12-10T22:16:53.902Z,56.96
2023-12-10T22:19:22.499Z,56.75
2023-12-10T22:21:51.495Z,56.77
2023-12-10T22:24:20.913Z,56.84
2023-12-10T22:26:49.345Z,56.84
2023-12-10T22:29:18.091Z,56.81
2023-12-10T22:31:46.355Z,56.84
2023-12-10T22:34:14.655Z,56.89
2023-12-10T22:36:43.406Z,56.93
2023-12-10T22:39:12.017Z,56.87
2023-12-10T22:41:40.389Z,56.89
2023-12-10T22:44:08.940Z,56.79
2023-12-10T22:46:37.270Z,56.79
2023-12-10T22:49:05.679Z,56.88
2023-12-10T22:51:34.285Z,56.99
2023-12-10T22:54:02.864Z,56.88
2023-12-10T22:56:32.586Z,56.73
2023-12-10T22:59:01.144Z,56.96
2023-12-10T23:01:29.509Z,56.85
2023-12-10T23:03:57.906Z,56.89
2023-12-10T23:06:26.645Z,56.86
2023-12-10T23:08:55.606Z,56.78
2023-12-10T23:11:24.153Z,56.71
2023-12-10T23:13:52.642Z,56.55
2023-12-10T23:16:20.976Z,56.52
2023-12-10T23:18:49.523Z,56.45
2023-12-10T23:21:18.068Z,56.58
2023-12-10T23:23:46.428Z,56.45
2023-12-10T23:26:14.709Z,56.49
2023-12-10T23:28:43.639Z,56.51
2023-12-10T23:31:12.215Z,56.60
2023-12-10T23:33:41.093Z,56.38
2023-12-10T23:36:09.657Z,56.45
2023-12-10T23:38:39.698Z,56.31
2023-12-10T23:41:09.033Z,56.27
2023-12-10T23:43:37.619Z,56.10
2023-12-10T23:46:10.413Z,56.05
2023-12-10T23:48:39.692Z,55.78
2023-12-10T23:51:21.295Z,55.49
2023-12-10T23:53:49.932Z,55.50
2023-12-10T23:56:18.313Z,55.32
2023-12-10T23:58:46.910Z,55.37
